createdAt,value
2023-05-03T00:00:43.711Z,29.60
2023-05-03T00:03:15.490Z,29.60
2023-05-03T00:05:46.762Z,29.70
2023-05-03T00:08:17.873Z,29.70
2023-05-03T00:10:49.066Z,29.80
2023-05-03T00:13:20.169Z,29.80
2023-05-03T00:15:51.494Z,29.80
2023-05-03T00:18:22.829Z,29.80
2023-05-03T00:20:54.550Z,29.80
2023-05-03T00:23:25.721Z,29.80
2023-05-03T00:26:00.626Z,29.80
2023-05-03T00:28:31.834Z,29.90
2023-05-03T00:31:11.322Z,29.90
2023-05-03T00:33:42.990Z,30.00
2023-05-03T00:36:15.928Z,30.00
2023-05-03T00:38:47.102Z,30.00
2023-05-03T00:41:18.873Z,30.00
2023-05-03T00:43:50.027Z,30.10
2023-05-03T00:46:21.339Z,30.20
2023-05-03T00:48:52.857Z,30.20
2023-05-03T00:51:24.973Z,30.30
2023-05-03T00:53:56.087Z,30.40
2023-05-03T00:56:30.997Z,30.40
2023-05-03T00:59:01.069Z,30.40
2023-05-03T01:01:32.515Z,30.50
2023-05-03T01:04:07.846Z,30.60
2023-05-03T01:06:56.525Z,30.70
2023-05-03T01:09:45.409Z,30.70
2023-05-03T01:12:18.872Z,30.80
2023-05-03T01:15:11.574Z,30.80
2023-05-03T01:17:44.879Z,30.80
2023-05-03T01:20:17.467Z,30.90
2023-05-03T01:22:50.918Z,31.00
2023-05-03T01:25:22.522Z,31.00
2023-05-03T01:27:54.966Z,31.10
2023-05-03T01:30:29.500Z,31.10
2023-05-03T01:33:06.211Z,31.30
2023-05-03T01:35:59.110Z,31.30
2023-05-03T01:38:32.024Z,31.40
2023-05-03T01:41:05.535Z,31.50
2023-05-03T01:43:38.384Z,31.50
2023-05-03T01:46:11.327Z,31.70
2023-05-03T01:48:42.725Z,31.80
2023-05-03T01:51:14.224Z,31.90
2023-05-03T01:53:45.685Z,32.00
2023-05-03T01:56:17.422Z,32.10
2023-05-03T01:58:49.018Z,32.10
2023-05-03T02:01:20.741Z,32.20
2023-05-03T02:03:52.599Z,32.30
2023-05-03T02:06:23.791Z,32.30
2023-05-03T02:08:55.402Z,32.40
2023-05-03T02:11:26.886Z,32.60
2023-05-03T02:13:58.679Z,32.70
2023-05-03T02:16:30.360Z,32.90
2023-05-03T02:19:04.979Z,33.00
2023-05-03T02:21:37.546Z,33.10
2023-05-03T02:24:09.376Z,33.30
2023-05-03T02:26:40.932Z,33.50
2023-05-03T02:29:12.063Z,33.50
2023-05-03T02:31:43.157Z,33.70
2023-05-03T02:34:14.645Z,33.70
2023-05-03T02:36:45.746Z,33.80
2023-05-03T02:39:16.986Z,33.80
2023-05-03T02:41:48.076Z,33.90
2023-05-03T02:44:19.250Z,34.00
2023-05-03T02:46:50.399Z,34.10
2023-05-03T02:49:21.939Z,34.30
2023-05-03T02:51:54.463Z,34.30
2023-05-03T02:54:25.555Z,34.40
2023-05-03T02:56:56.768Z,34.50
2023-05-03T02:59:29.002Z,34.50
2023-05-03T03:02:01.046Z,34.50
2023-05-03T03:04:32.828Z,34.60
2023-05-03T03:07:03.976Z,34.60
2023-05-03T03:09:35.186Z,34.60
2023-05-03T03:12:06.561Z,34.60
2023-05-03T03:14:37.711Z,34.70
2023-05-03T03:17:10.798Z,34.80
2023-05-03T03:19:42.014Z,34.90
2023-05-03T03:22:13.453Z,35.00
2023-05-03T03:24:45.001Z,35.10
2023-05-03T03:27:16.362Z,35.20
2023-05-03T03:29:48.221Z,35.30
2023-05-03T03:32:20.023Z,35.40
2023-05-03T03:34:51.174Z,35.50
2023-05-03T03:37:24.537Z,35.60
2023-05-03T03:39:57.635Z,35.70
2023-05-03T03:42:29.029Z,35.70
2023-05-03T03:45:00.198Z,35.80
2023-05-03T03:47:31.328Z,35.80
2023-05-03T03:50:03.834Z,35.90
2023-05-03T03:52:36.478Z,35.90
2023-05-03T03:55:08.758Z,35.80
2023-05-03T03:57:40.187Z,35.80
2023-05-03T04:00:12.310Z,35.80
2023-05-03T04:02:44.043Z,35.90
2023-05-03T04:05:17.584Z,36.00
2023-05-03T04:07:50.093Z,36.00
2023-05-03T04:10:22.442Z,36.00
2023-05-03T04:12:53.849Z,36.10
2023-05-03T04:15:24.958Z,36.20
2023-05-03T04:17:56.116Z,36.30
2023-05-03T04:20:28.688Z,36.20
2023-05-03T04:22:59.819Z,36.10
2023-05-03T04:25:32.501Z,36.00
2023-05-03T04:28:04.355Z,35.80
2023-05-03T04:30:37.096Z,35.70
2023-05-03T04:33:10.313Z,35.50
2023-05-03T04:35:41.538Z,35.40
2023-05-03T04:38:14.378Z,35.40
2023-05-03T04:40:48.278Z,35.30
2023-05-03T04:43:23.135Z,35.30
2023-05-03T04:45:55.573Z,35.30
2023-05-03T04:48:26.709Z,35.30
2023-05-03T04:50:58.028Z,35.40
2023-05-03T04:53:32.300Z,35.50
2023-05-03T04:56:03.421Z,35.60
2023-05-03T04:58:34.610Z,35.80
2023-05-03T05:01:06.137Z,35.90
2023-05-03T05:03:38.432Z,36.10
2023-05-03T05:06:11.014Z,36.20
2023-05-03T05:08:45.232Z,36.30
2023-05-03T05:11:17.689Z,36.40
2023-05-03T05:13:49.691Z,36.40
2023-05-03T05:16:21.822Z,36.50
2023-05-03T05:18:56.181Z,36.50
2023-05-03T05:21:28.066Z,36.60
2023-05-03T05:23:59.457Z,36.60
2023-05-03T05:26:33.355Z,36.70
2023-05-03T05:29:04.769Z,36.60
2023-05-03T05:31:36.466Z,36.60
2023-05-03T05:34:07.981Z,36.60
2023-05-03T05:36:40.570Z,36.60
2023-05-03T05:39:13.073Z,36.70
2023-05-03T05:41:44.566Z,36.70
2023-05-03T05:44:15.777Z,36.60
2023-05-03T05:46:47.714Z,36.60
2023-05-03T05:49:18.904Z,36.70
2023-05-03T05:51:50.106Z,36.80
2023-05-03T05:54:21.262Z,36.80
2023-05-03T05:56:52.702Z,36.90
2023-05-03T05:59:24.208Z,37.00
2023-05-03T06:01:55.520Z,37.10
2023-05-03T06:04:28.330Z,37.10
2023-05-03T06:07:00.847Z,37.10
2023-05-03T06:09:33.208Z,37.10
2023-05-03T06:12:04.632Z,37.20
2023-05-03T06:14:40.671Z,37.30
2023-05-03T06:17:09.111Z,37.30
2023-05-03T06:19:41.513Z,37.30
2023-05-03T06:22:13.031Z,37.30
2023-05-03T06:24:44.620Z,37.30
2023-05-03T06:27:16.151Z,37.20
2023-05-03T06:29:47.706Z,37.10
2023-05-03T06:32:18.826Z,37.00
2023-05-03T06:34:50.855Z,37.00
2023-05-03T06:37:22.316Z,37.10
2023-05-03T06:39:53.878Z,37.10
2023-05-03T06:42:25.311Z,37.20
2023-05-03T06:44:56.457Z,37.20
2023-05-03T06:47:27.677Z,37.20
2023-05-03T06:50:00.233Z,37.30
2023-05-03T06:52:31.562Z,37.30
2023-05-03T06:55:02.699Z,37.30
2023-05-03T06:57:35.147Z,37.20
2023-05-03T07:00:09.886Z,37.20
2023-05-03T07:02:41.138Z,37.10
2023-05-03T07:05:13.953Z,37.00
2023-05-03T07:07:48.203Z,36.90
2023-05-03T07:10:19.965Z,36.80
2023-05-03T07:12:51.447Z,36.80
2023-05-03T07:15:22.966Z,36.80
2023-05-03T07:17:56.616Z,36.70
2023-05-03T07:20:28.498Z,36.70
2023-05-03T07:23:43.593Z,36.70
2023-05-03T07:26:14.526Z,36.70
2023-05-03T07:28:45.752Z,36.70
2023-05-03T07:31:18.333Z,36.60
2023-05-03T07:33:50.847Z,36.60
2023-05-03T07:36:25.684Z,36.60
2023-05-03T07:38:58.658Z,36.50
2023-05-03T07:41:35.997Z,36.50
2023-05-03T07:44:10.173Z,36.40
2023-05-03T07:46:44.098Z,36.40
2023-05-03T07:49:14.134Z,36.50
2023-05-03T07:51:45.584Z,36.60
2023-05-03T07:54:19.394Z,36.70
2023-05-03T07:57:20.893Z,36.80
2023-05-03T07:59:23.512Z,36.80
2023-05-03T08:01:58.799Z,36.80
2023-05-03T08:04:30.612Z,36.80
2023-05-03T08:07:06.701Z,36.80
2023-05-03T08:09:37.978Z,36.80
2023-05-03T08:12:10.325Z,36.80
2023-05-03T08:14:42.065Z,36.70
2023-05-03T08:17:13.419Z,36.70
2023-05-03T08:19:44.912Z,36.80
2023-05-03T08:22:16.321Z,36.80
2023-05-03T08:24:47.781Z,36.80
2023-05-03T08:27:19.273Z,36.90
2023-05-03T08:29:50.746Z,37.00
2023-05-03T08:32:23.369Z,37.10
2023-05-03T08:34:55.090Z,37.10
2023-05-03T08:37:28.504Z,37.10
2023-05-03T08:39:59.412Z,37.00
2023-05-03T08:42:31.920Z,37.00
2023-05-03T08:45:04.170Z,36.90
2023-05-03T08:47:37.462Z,36.90
2023-05-03T08:50:10.164Z,36.80
2023-05-03T08:52:51.200Z,36.80
2023-05-03T08:55:23.992Z,36.80
2023-05-03T08:57:56.400Z,36.80
2023-05-03T09:00:31.934Z,36.80
2023-05-03T09:03:04.029Z,36.80
2023-05-03T09:05:36.597Z,36.80
2023-05-03T09:08:10.470Z,36.80
2023-05-03T09:10:43.909Z,36.80
2023-05-03T09:13:16.421Z,36.70
2023-05-03T09:15:49.453Z,36.60
2023-05-03T09:18:22.397Z,36.50
2023-05-03T09:21:01.385Z,36.50
2023-05-03T09:23:34.088Z,36.50
2023-05-03T09:26:05.610Z,36.40
2023-05-03T09:28:44.912Z,36.40
2023-05-03T09:31:23.403Z,36.30
2023-05-03T09:33:51.979Z,36.30
2023-05-03T09:36:23.656Z,36.30
2023-05-03T09:38:55.831Z,36.20
2023-05-03T09:41:33.918Z,36.20
2023-05-03T09:44:06.516Z,36.00
2023-05-03T09:46:38.695Z,35.60
2023-05-03T09:49:10.170Z,35.30
2023-05-03T09:51:43.070Z,35.00
2023-05-03T09:54:15.051Z,34.70
2023-05-03T09:56:48.449Z,34.40
2023-05-03T09:59:19.716Z,34.20
2023-05-03T10:01:55.287Z,34.00
2023-05-03T10:04:28.995Z,33.90
2023-05-03T10:07:03.905Z,33.80
2023-05-03T10:09:51.283Z,33.80
2023-05-03T10:12:24.438Z,33.80
2023-05-03T10:14:57.867Z,33.70
2023-05-03T10:17:46.405Z,33.80
2023-05-03T10:20:25.085Z,33.80
2023-05-03T10:23:13.657Z,33.90
2023-05-03T10:26:08.447Z,33.90
2023-05-03T10:28:40.624Z,33.90
2023-05-03T10:31:25.744Z,34.00
2023-05-03T10:34:03.046Z,34.00
2023-05-03T10:36:38.406Z,34.00
2023-05-03T10:39:02.433Z,34.00
2023-05-03T10:41:35.560Z,34.00
2023-05-03T10:44:29.557Z,34.00
2023-05-03T10:52:45.041Z,34.00
2023-05-03T10:55:22.195Z,34.10
2023-05-03T10:57:58.702Z,34.10
2023-05-03T11:00:38.138Z,34.10
2023-05-03T11:03:19.223Z,34.10
2023-05-03T11:05:51.277Z,34.20
2023-05-03T11:08:30.344Z,34.10
2023-05-03T11:11:03.763Z,34.10
2023-05-03T11:13:36.335Z,34.10
2023-05-03T11:16:08.809Z,34.10
2023-05-03T11:18:39.955Z,34.00
2023-05-03T11:21:11.218Z,34.10
2023-05-03T11:23:44.345Z,34.00
2023-05-03T11:26:16.397Z,34.00
2023-05-03T11:28:47.796Z,34.00
2023-05-03T11:31:19.079Z,33.90
2023-05-03T11:33:52.220Z,33.90
2023-05-03T11:36:23.413Z,33.90
2023-05-03T11:38:55.176Z,33.80
2023-05-03T11:41:27.300Z,33.80
2023-05-03T11:44:12.311Z,33.70
2023-05-03T11:46:33.145Z,33.70
2023-05-03T11:49:05.166Z,33.60
2023-05-03T11:51:37.314Z,33.60
2023-05-03T11:54:21.036Z,33.60
2023-05-03T11:56:41.698Z,33.60
2023-05-03T11:59:12.849Z,33.60
2023-05-03T12:01:44.874Z,33.50
2023-05-03T12:04:17.715Z,33.50
2023-05-03T12:06:51.963Z,33.50
2023-05-03T12:09:26.989Z,33.40
2023-05-03T12:11:59.024Z,33.40
2023-05-03T12:14:30.633Z,33.40
2023-05-03T12:17:02.488Z,33.30
2023-05-03T12:19:35.021Z,33.30
2023-05-03T12:22:23.463Z,33.20
2023-05-03T12:24:39.760Z,33.20
2023-05-03T12:27:14.758Z,33.20
2023-05-03T12:29:47.363Z,33.10
2023-05-03T12:32:20.976Z,33.10
2023-05-03T12:34:55.525Z,33.10
2023-05-03T12:37:27.791Z,33.00
2023-05-03T12:40:18.699Z,32.90
2023-05-03T12:42:33.820Z,32.90
2023-05-03T12:45:06.100Z,32.90
2023-05-03T12:47:39.167Z,32.80
2023-05-03T12:50:12.873Z,32.80
2023-05-03T12:52:45.486Z,32.80
2023-05-03T12:55:18.447Z,32.80
2023-05-03T12:58:10.318Z,32.70
2023-05-03T13:00:25.001Z,32.70
2023-05-03T13:05:34.981Z,32.70
2023-05-03T13:08:08.530Z,32.70
2023-05-03T13:10:37.166Z,32.70
2023-05-03T13:13:08.498Z,32.70
2023-05-03T13:15:40.538Z,32.70
2023-05-03T13:18:11.734Z,32.70
2023-05-03T13:20:43.724Z,32.80
2023-05-03T13:23:19.390Z,32.80
2023-05-03T13:25:52.377Z,32.90
2023-05-03T13:28:25.178Z,32.90
2023-05-03T13:30:56.388Z,32.90
2023-05-03T13:33:27.702Z,32.90
2023-05-03T13:35:59.942Z,33.00
2023-05-03T13:38:31.227Z,33.00
2023-05-03T13:41:05.232Z,32.90
2023-05-03T13:43:36.438Z,32.80
2023-05-03T13:46:08.880Z,32.80
2023-05-03T13:51:47.022Z,32.80
2023-05-03T13:54:18.502Z,32.80
2023-05-03T13:56:49.794Z,32.70
2023-05-03T13:59:24.997Z,32.60
2023-05-03T14:02:00.064Z,32.70
2023-05-03T14:04:32.777Z,32.80
2023-05-03T14:07:09.198Z,32.70
2023-05-03T14:09:41.621Z,32.80
2023-05-03T14:12:15.457Z,32.80
2023-05-03T14:14:46.110Z,32.70
2023-05-03T14:17:18.418Z,32.70
2023-05-03T14:19:50.585Z,32.70
2023-05-03T14:25:20.055Z,32.70
2023-05-03T14:27:51.174Z,32.70
2023-05-03T14:30:22.643Z,32.70
2023-05-03T14:32:53.775Z,32.70
2023-05-03T14:35:25.193Z,32.70
2023-05-03T14:37:56.517Z,32.60
2023-05-03T14:40:28.522Z,32.50
2023-05-03T14:43:00.444Z,32.50
2023-05-03T14:45:31.651Z,32.50
2023-05-03T14:48:03.093Z,32.50
2023-05-03T14:50:34.787Z,32.40
2023-05-03T14:55:42.654Z,32.40
2023-05-03T14:58:15.688Z,32.40
2023-05-03T15:00:48.950Z,32.40
2023-05-03T15:03:20.625Z,32.40
2023-05-03T15:05:55.237Z,32.40
2023-05-03T15:08:26.914Z,32.50
2023-05-03T15:10:58.022Z,32.50
2023-05-03T15:13:29.886Z,32.50
2023-05-03T15:16:01.378Z,32.50
2023-05-03T15:18:45.018Z,32.40
2023-05-03T15:21:17.746Z,32.40
2023-05-03T15:23:53.532Z,32.40
2023-05-03T15:26:25.891Z,32.40
2023-05-03T15:28:57.050Z,32.40
2023-05-03T15:31:29.058Z,32.40
2023-05-03T15:34:02.584Z,32.30
2023-05-03T15:36:37.644Z,32.30
2023-05-03T15:39:10.401Z,32.30
2023-05-03T15:41:41.576Z,32.30
2023-05-03T15:44:18.712Z,32.30
2023-05-03T15:46:50.450Z,32.30
2023-05-03T15:49:23.612Z,32.30
2023-05-03T15:51:58.159Z,32.30
2023-05-03T15:54:29.890Z,32.30
2023-05-03T15:57:01.104Z,32.20
2023-05-03T15:59:32.356Z,32.20
2023-05-03T16:02:06.808Z,32.10
2023-05-03T16:04:42.245Z,32.00
2023-05-03T16:07:13.716Z,32.00
2023-05-03T16:09:45.952Z,31.90
2023-05-03T16:12:18.609Z,31.80
2023-05-03T16:14:50.231Z,31.80
2023-05-03T16:17:21.963Z,31.80
2023-05-03T16:19:53.408Z,31.80
2023-05-03T16:22:24.795Z,31.80
2023-05-03T16:24:55.899Z,31.70
2023-05-03T16:27:27.602Z,31.70
2023-05-03T16:30:03.396Z,31.70
2023-05-03T16:32:35.318Z,31.60
2023-05-03T16:35:07.199Z,31.60
2023-05-03T16:37:39.268Z,31.60
2023-05-03T16:40:30.503Z,31.60
2023-05-03T16:43:02.170Z,31.60
2023-05-03T16:45:37.645Z,31.60
2023-05-03T16:48:10.455Z,31.70
2023-05-03T16:50:43.454Z,31.70
2023-05-03T16:53:45.896Z,31.60
2023-05-03T16:56:02.080Z,31.60
2023-05-03T16:58:38.871Z,31.60
2023-05-03T17:01:12.760Z,31.50
2023-05-03T17:03:51.128Z,31.50
2023-05-03T17:06:24.272Z,31.60
2023-05-03T17:08:55.408Z,31.50
2023-05-03T17:11:29.947Z,31.50
2023-05-03T17:14:02.727Z,31.60
2023-05-03T17:16:33.866Z,31.50
2023-05-03T17:19:05.186Z,31.50
2023-05-03T17:21:36.332Z,31.50
2023-05-03T17:24:10.208Z,31.50
2023-05-03T17:26:41.303Z,31.40
2023-05-03T17:29:17.453Z,31.40
2023-05-03T17:31:48.724Z,31.40
2023-05-03T17:34:24.170Z,31.40
2023-05-03T17:36:58.419Z,31.30
2023-05-03T17:39:36.540Z,31.30
2023-05-03T17:42:08.973Z,31.30
2023-05-03T17:44:43.041Z,31.30
2023-05-03T17:47:21.449Z,31.30
2023-05-03T17:49:55.791Z,31.30
2023-05-03T17:52:29.904Z,31.30
2023-05-03T17:55:13.392Z,31.30
2023-05-03T17:57:46.392Z,31.20
2023-05-03T18:00:21.507Z,31.20
2023-05-03T18:03:10.426Z,31.20
2023-05-03T18:05:48.106Z,31.10
2023-05-03T18:08:23.156Z,31.10
2023-05-03T18:10:53.031Z,31.10
2023-05-03T18:13:25.191Z,31.00
2023-05-03T18:15:56.889Z,31.00
2023-05-03T18:18:32.180Z,31.00
2023-05-03T18:21:04.614Z,30.90
2023-05-03T18:23:38.154Z,30.90
2023-05-03T18:26:09.523Z,30.90
2023-05-03T18:28:40.710Z,30.90
2023-05-03T18:31:19.731Z,30.90
2023-05-03T18:33:55.502Z,30.90
2023-05-03T18:36:29.634Z,30.90
2023-05-03T18:39:01.972Z,30.90
2023-05-03T18:41:33.390Z,30.90
2023-05-03T18:44:08.061Z,30.90
2023-05-03T18:46:40.130Z,30.90
2023-05-03T18:49:13.846Z,30.90
2023-05-03T18:51:45.214Z,30.90
2023-05-03T18:54:16.318Z,30.90
2023-05-03T18:56:47.468Z,30.80
2023-05-03T18:59:18.869Z,30.80
2023-05-03T19:01:49.962Z,30.80
2023-05-03T19:04:21.180Z,30.80
2023-05-03T19:06:52.353Z,30.80
2023-05-03T19:09:23.448Z,30.80
2023-05-03T19:11:54.609Z,30.80
2023-05-03T19:14:25.704Z,30.80
2023-05-03T19:16:56.894Z,30.70
2023-05-03T19:19:28.043Z,30.70
2023-05-03T19:21:59.161Z,30.70
2023-05-03T19:24:30.286Z,30.70
2023-05-03T19:27:07.099Z,30.70
2023-05-03T19:29:35.057Z,30.60
2023-05-03T19:32:06.432Z,30.60
2023-05-03T19:34:43.142Z,30.60
2023-05-03T19:37:14.253Z,30.50
2023-05-03T19:39:45.374Z,30.50
2023-05-03T19:42:16.807Z,30.50
2023-05-03T19:44:48.136Z,30.50
2023-05-03T19:47:19.282Z,30.40
2023-05-03T19:49:50.659Z,30.40
2023-05-03T19:52:21.784Z,30.50
2023-05-03T19:54:52.871Z,30.40
2023-05-03T19:57:23.968Z,30.40
2023-05-03T19:59:55.109Z,30.40
2023-05-03T20:02:26.876Z,30.40
2023-05-03T20:04:58.053Z,30.40
2023-05-03T20:07:29.161Z,30.30
2023-05-03T20:10:00.301Z,30.30
2023-05-03T20:12:32.269Z,30.40
2023-05-03T20:15:03.421Z,30.40
2023-05-03T20:17:34.558Z,30.40
2023-05-03T20:20:13.485Z,30.50
2023-05-03T20:22:44.717Z,30.50
2023-05-03T20:25:15.856Z,30.50
2023-05-03T20:27:47.551Z,30.50
2023-05-03T20:30:18.737Z,30.40
2023-05-03T20:32:49.951Z,30.40
2023-05-03T20:35:21.080Z,30.40
2023-05-03T20:37:52.210Z,30.40
2023-05-03T20:40:23.352Z,30.40
2023-05-03T20:42:54.462Z,30.40
2023-05-03T20:45:25.741Z,30.50
2023-05-03T20:47:57.142Z,30.50
2023-05-03T20:50:28.551Z,30.40
2023-05-03T20:52:59.677Z,30.40
2023-05-03T20:55:30.804Z,30.30
2023-05-03T20:58:01.970Z,30.20
2023-05-03T21:00:33.233Z,30.20
2023-05-03T21:03:04.696Z,30.20
2023-05-03T21:05:36.563Z,30.20
2023-05-03T21:08:07.702Z,30.20
2023-05-03T21:10:38.807Z,30.20
2023-05-03T21:13:10.046Z,30.20
2023-05-03T21:15:41.339Z,30.10
2023-05-03T21:18:13.039Z,30.10
2023-05-03T21:20:44.536Z,30.00
2023-05-03T21:23:15.684Z,30.00
2023-05-03T21:25:46.765Z,30.00
2023-05-03T21:28:18.052Z,29.90
2023-05-03T21:33:41.404Z,29.90
2023-05-03T21:36:13.636Z,29.90
2023-05-03T21:38:44.744Z,29.90
2023-05-03T21:41:17.150Z,29.90
2023-05-03T21:44:02.969Z,29.90
2023-05-03T21:46:34.453Z,29.90
2023-05-03T21:49:05.568Z,30.00
2023-05-03T21:51:36.709Z,30.00
2023-05-03T21:54:08.224Z,30.00
2023-05-03T21:56:39.356Z,30.00
2023-05-03T21:59:10.533Z,30.00
2023-05-03T22:01:41.714Z,30.00
2023-05-03T22:04:12.884Z,30.00
2023-05-03T22:06:47.127Z,29.90
2023-05-03T22:09:18.578Z,29.90
2023-05-03T22:11:49.714Z,29.90
2023-05-03T22:14:20.891Z,29.80
2023-05-03T22:16:52.060Z,29.80
2023-05-03T22:19:23.179Z,29.80
2023-05-03T22:21:54.283Z,29.80
2023-05-03T22:24:26.725Z,29.80
2023-05-03T22:26:57.840Z,29.80
2023-05-03T22:29:29.061Z,29.80
2023-05-03T22:32:02.610Z,29.80
2023-05-03T22:34:33.917Z,29.80
2023-05-03T22:37:05.052Z,29.80
2023-05-03T22:39:36.208Z,29.80
2023-05-03T22:42:08.133Z,29.70
2023-05-03T22:44:40.231Z,29.70
2023-05-03T22:47:11.482Z,29.70
2023-05-03T22:49:42.601Z,29.70
2023-05-03T22:52:13.735Z,29.70
2023-05-03T22:54:44.875Z,29.70
2023-05-03T22:57:15.976Z,29.70
2023-05-03T22:59:50.205Z,29.70
2023-05-03T23:02:21.489Z,29.70
2023-05-03T23:04:52.851Z,29.70
2023-05-03T23:07:26.228Z,29.70
2023-05-03T23:10:04.478Z,29.70
2023-05-03T23:12:36.023Z,29.70
2023-05-03T23:15:08.079Z,29.60
2023-05-03T23:17:39.259Z,29.70
2023-05-03T23:20:11.734Z,29.70
2023-05-03T23:22:43.445Z,29.70
2023-05-03T23:25:14.781Z,29.70
2023-05-03T23:27:47.084Z,29.70
2023-05-03T23:30:18.656Z,29.70
2023-05-03T23:32:50.457Z,29.70
2023-05-03T23:35:23.319Z,29.70
2023-05-03T23:37:54.833Z,29.70
2023-05-03T23:40:25.972Z,29.80
2023-05-03T23:42:57.604Z,29.80
2023-05-03T23:45:28.781Z,29.80
2023-05-03T23:47:59.933Z,29.80
2023-05-03T23:50:31.069Z,29.80
2023-05-03T23:53:02.841Z,29.80
2023-05-03T23:55:42.144Z,29.80
2023-05-03T23:58:17.648Z,29.90
